createdAt,value
2022-11-27T00:00:11.956Z,1.40
2022-11-27T00:05:38.450Z,1.30
2022-11-27T00:10:42.159Z,1.08
2022-11-27T00:15:47.719Z,0.93
2022-11-27T00:20:51.494Z,0.99
2022-11-27T00:25:55.473Z,1.24
2022-11-27T00:31:02.064Z,2.44
2022-11-27T00:36:07.271Z,1.31
2022-11-27T00:41:15.513Z,1.53
2022-11-27T00:46:27.894Z,2.43
2022-11-27T00:51:32.785Z,1.40
2022-11-27T00:56:39.173Z,0.86
2022-11-27T01:01:45.076Z,0.62
2022-11-27T01:06:48.691Z,0.47
2022-11-27T01:11:52.432Z,0.33
2022-11-27T01:16:57.693Z,0.28
2022-11-27T01:22:01.496Z,0.10
2022-11-27T01:27:05.293Z,0.21
2022-11-27T01:32:10.399Z,0.80
2022-11-27T01:37:14.156Z,1.39
2022-11-27T01:42:17.899Z,0.40
2022-11-27T01:47:36.877Z,0.35
2022-11-27T01:52:44.234Z,0.17
2022-11-27T01:57:51.121Z,0.97
2022-11-27T02:02:56.420Z,0.97
2022-11-27T02:08:04.257Z,0.50
2022-11-27T02:13:12.947Z,0.89
2022-11-27T02:18:26.412Z,1.96
2022-11-27T02:23:59.788Z,1.79
2022-11-27T02:29:07.999Z,0.94
2022-11-27T02:34:23.621Z,1.29
2022-11-27T02:39:34.506Z,0.55
2022-11-27T02:44:46.435Z,0.44
2022-11-27T02:49:52.574Z,0.46
2022-11-27T02:55:00.638Z,1.83
2022-11-27T03:00:07.675Z,1.84
2022-11-27T03:05:16.005Z,1.65
2022-11-27T03:10:23.035Z,1.08
2022-11-27T03:15:35.783Z,0.52
2022-11-27T03:20:44.292Z,0.62
2022-11-27T03:25:48.101Z,1.64
2022-11-27T03:30:53.370Z,2.06
2022-11-27T03:35:57.299Z,2.21
2022-11-27T03:41:08.140Z,3.00
2022-11-27T03:46:21.665Z,1.93
2022-11-27T03:51:37.375Z,0.65
2022-11-27T03:56:44.700Z,1.79
2022-11-27T04:01:50.482Z,1.09
2022-11-27T04:06:54.495Z,2.83
2022-11-27T04:11:58.202Z,2.18
2022-11-27T04:17:03.320Z,0.79
2022-11-27T04:22:07.042Z,2.74
2022-11-27T04:27:11.148Z,2.49
2022-11-27T04:32:17.563Z,2.69
2022-11-27T04:37:21.502Z,2.01
2022-11-27T04:42:25.330Z,2.65
2022-11-27T04:47:30.481Z,2.40
2022-11-27T04:52:34.228Z,2.12
2022-11-27T04:57:38.077Z,1.93
2022-11-27T05:02:43.341Z,2.66
2022-11-27T05:07:47.589Z,2.36
2022-11-27T05:12:51.523Z,1.38
2022-11-27T05:17:56.655Z,1.62
2022-11-27T05:23:00.364Z,2.29
2022-11-27T05:28:04.234Z,2.23
2022-11-27T05:33:09.423Z,2.49
2022-11-27T05:38:13.524Z,1.79
2022-11-27T05:43:17.260Z,1.97
2022-11-27T05:48:22.320Z,2.96
2022-11-27T05:53:26.103Z,1.90
2022-11-27T05:58:29.950Z,1.69
2022-11-27T06:03:35.519Z,2.25
2022-11-27T06:08:40.292Z,2.40
2022-11-27T06:13:45.136Z,3.07
2022-11-27T06:18:52.281Z,2.48
2022-11-27T06:23:57.619Z,2.53
2022-11-27T06:29:02.482Z,1.30
2022-11-27T06:34:08.181Z,1.31
2022-11-27T06:39:12.841Z,1.69
2022-11-27T06:44:16.623Z,2.71
2022-11-27T06:49:22.287Z,1.97
2022-11-27T06:54:26.325Z,3.55
2022-11-27T06:59:30.356Z,2.93
2022-11-27T07:04:35.607Z,1.99
2022-11-27T07:09:39.433Z,2.09
2022-11-27T07:14:43.282Z,3.29
2022-11-27T07:19:48.627Z,3.92
2022-11-27T07:24:52.571Z,2.73
2022-11-27T07:29:56.437Z,3.35
2022-11-27T07:35:01.788Z,1.85
2022-11-27T07:40:07.027Z,2.36
2022-11-27T07:45:12.055Z,1.28
2022-11-27T07:50:18.011Z,2.28
2022-11-27T07:55:22.538Z,2.74
2022-11-27T08:00:27.390Z,4.13
2022-11-27T08:05:35.353Z,2.64
2022-11-27T08:10:40.999Z,2.82
2022-11-27T08:15:46.189Z,2.67
2022-11-27T08:20:51.672Z,3.22
2022-11-27T08:25:55.756Z,2.77
2022-11-27T08:31:01.371Z,3.01
2022-11-27T08:36:10.628Z,4.01
2022-11-27T08:41:17.848Z,3.55
2022-11-27T08:46:24.105Z,4.77
2022-11-27T08:51:29.926Z,3.91
2022-11-27T08:56:33.869Z,3.80
2022-11-27T09:01:38.337Z,3.23
2022-11-27T09:06:43.659Z,2.65
2022-11-27T09:11:48.542Z,4.67
2022-11-27T09:16:53.825Z,4.70
2022-11-27T09:21:59.607Z,2.43
2022-11-27T09:27:03.706Z,3.40
2022-11-27T09:32:07.814Z,3.35
2022-11-27T09:37:14.004Z,4.53
2022-11-27T09:42:38.900Z,5.15
2022-11-27T09:47:49.237Z,3.66
2022-11-27T09:52:59.394Z,5.21
2022-11-27T09:58:17.625Z,5.98
2022-11-27T10:03:29.355Z,5.45
2022-11-27T10:08:48.200Z,5.37
2022-11-27T10:14:04.684Z,5.78
2022-11-27T10:19:23.828Z,6.33
2022-11-27T10:24:41.067Z,6.58
2022-11-27T10:29:52.520Z,6.63
2022-11-27T10:35:01.742Z,4.37
2022-11-27T10:40:19.955Z,4.34
2022-11-27T10:45:31.177Z,6.61
2022-11-27T10:50:38.277Z,5.74
2022-11-27T10:56:13.656Z,7.12
2022-11-27T11:01:23.160Z,7.09
2022-11-27T11:06:41.398Z,5.74
2022-11-27T11:11:47.416Z,5.01
2022-11-27T11:16:53.418Z,4.48
2022-11-27T11:22:01.336Z,5.81
2022-11-27T11:27:13.705Z,4.00
2022-11-27T11:32:31.532Z,3.50
2022-11-27T11:37:37.740Z,3.45
2022-11-27T11:43:11.413Z,3.24
2022-11-27T11:48:24.030Z,3.61
2022-11-27T11:53:35.160Z,3.77
2022-11-27T11:58:54.674Z,4.35
2022-11-27T12:04:11.973Z,4.53
2022-11-27T12:09:26.670Z,4.76
2022-11-27T12:14:44.343Z,3.47
2022-11-27T12:20:04.462Z,3.89
2022-11-27T12:25:23.379Z,4.63
2022-11-27T12:30:38.304Z,3.67
2022-11-27T12:35:45.841Z,4.15
2022-11-27T12:41:03.727Z,3.96
2022-11-27T12:46:16.480Z,4.79
2022-11-27T12:51:27.603Z,5.30
2022-11-27T12:56:37.151Z,5.52
2022-11-27T13:01:47.240Z,4.25
2022-11-27T13:07:01.489Z,5.05
2022-11-27T13:12:06.770Z,5.30
2022-11-27T13:17:18.218Z,5.43
2022-11-27T13:22:27.656Z,4.64
2022-11-27T13:27:36.682Z,5.69
2022-11-27T13:32:50.497Z,5.02
2022-11-27T13:38:00.724Z,4.51
2022-11-27T13:43:31.515Z,5.22
2022-11-27T13:48:39.854Z,5.45
2022-11-27T13:53:44.223Z,6.16
2022-11-27T13:58:50.065Z,6.04
2022-11-27T14:03:54.653Z,5.63
2022-11-27T14:09:01.347Z,5.12
2022-11-27T14:14:16.766Z,5.82
2022-11-27T14:19:33.527Z,5.61
2022-11-27T14:24:44.099Z,5.90
2022-11-27T14:29:50.864Z,5.57
2022-11-27T14:34:55.068Z,6.15
2022-11-27T14:39:59.317Z,5.26
2022-11-27T14:45:06.548Z,5.80
2022-11-27T14:50:14.647Z,6.32
2022-11-27T14:55:21.387Z,6.39
2022-11-27T15:00:29.009Z,6.23
2022-11-27T15:05:39.501Z,6.10
2022-11-27T15:10:44.155Z,6.13
2022-11-27T15:15:57.257Z,5.92
2022-11-27T15:21:02.220Z,5.83
2022-11-27T15:26:15.176Z,5.68
2022-11-27T15:31:28.686Z,5.91
2022-11-27T15:36:39.931Z,5.86
2022-11-27T15:41:52.415Z,5.62
2022-11-27T15:47:00.755Z,5.95
2022-11-27T15:52:05.777Z,6.09
2022-11-27T15:57:10.279Z,5.83
2022-11-27T16:02:18.287Z,5.52
2022-11-27T16:07:23.553Z,6.10
2022-11-27T16:12:28.211Z,6.48
2022-11-27T16:17:33.775Z,6.45
2022-11-27T16:22:38.107Z,6.51
2022-11-27T16:27:42.635Z,5.11
2022-11-27T16:32:51.313Z,5.72
2022-11-27T16:37:57.976Z,6.16
2022-11-27T16:43:02.669Z,5.98
2022-11-27T16:48:08.861Z,6.43
2022-11-27T16:53:14.187Z,6.35
2022-11-27T16:58:18.984Z,5.90
2022-11-27T17:03:24.717Z,6.55
2022-11-27T17:08:29.043Z,6.23
2022-11-27T17:13:33.496Z,6.23
2022-11-27T17:18:40.069Z,6.16
2022-11-27T17:23:46.946Z,6.04
2022-11-27T17:28:52.169Z,6.27
2022-11-27T17:34:00.319Z,6.68
2022-11-27T17:39:06.587Z,6.05
2022-11-27T17:44:10.909Z,6.09
2022-11-27T17:49:17.249Z,6.30
2022-11-27T17:54:22.059Z,5.98
2022-11-27T17:59:26.889Z,5.92
2022-11-27T18:04:32.971Z,5.80
2022-11-27T18:09:37.272Z,5.87
2022-11-27T18:14:41.581Z,6.33
2022-11-27T18:19:46.900Z,6.19
2022-11-27T18:24:51.139Z,6.03
2022-11-27T18:29:56.225Z,5.25
2022-11-27T18:35:01.609Z,5.74
2022-11-27T18:40:06.576Z,6.09
2022-11-27T18:45:31.329Z,7.02
2022-11-27T18:50:37.680Z,5.97
2022-11-27T18:55:41.694Z,6.17
2022-11-27T19:00:46.622Z,6.88
2022-11-27T19:05:52.206Z,6.33
2022-11-27T19:10:56.405Z,6.08
2022-11-27T19:16:01.135Z,6.26
2022-11-27T19:21:11.717Z,6.14
2022-11-27T19:26:18.760Z,6.45
2022-11-27T19:31:23.866Z,6.95
2022-11-27T19:36:30.655Z,6.48
2022-11-27T19:41:35.231Z,6.86
2022-11-27T19:46:39.926Z,7.27
2022-11-27T19:51:46.008Z,6.71
2022-11-27T19:56:50.550Z,5.89
2022-11-27T20:01:55.499Z,5.35
2022-11-27T20:07:08.188Z,4.89
2022-11-27T20:12:12.312Z,5.30
2022-11-27T20:17:16.217Z,5.84
2022-11-27T20:22:21.864Z,5.88
2022-11-27T20:27:27.338Z,6.17
2022-11-27T20:32:33.092Z,6.24
2022-11-27T20:37:38.486Z,6.02
2022-11-27T20:42:42.431Z,5.39
2022-11-27T20:47:46.395Z,5.96
2022-11-27T20:52:51.731Z,6.25
2022-11-27T20:57:55.916Z,6.01
2022-11-27T21:02:59.790Z,5.75
2022-11-27T21:08:05.338Z,5.87
2022-11-27T21:13:09.449Z,5.85
2022-11-27T21:18:13.597Z,5.62
2022-11-27T21:23:20.896Z,5.82
2022-11-27T21:28:24.928Z,5.87
2022-11-27T21:33:29.413Z,5.58
2022-11-27T21:38:34.874Z,6.05
2022-11-27T21:43:39.066Z,5.62
2022-11-27T21:48:43.087Z,6.04
2022-11-27T21:53:50.217Z,5.93
2022-11-27T21:58:54.256Z,4.87
2022-11-27T22:03:58.891Z,5.07
2022-11-27T22:09:10.513Z,5.99
2022-11-27T22:14:18.213Z,5.76
2022-11-27T22:19:22.255Z,5.39
2022-11-27T22:24:27.892Z,5.88
2022-11-27T22:29:32.180Z,6.14
2022-11-27T22:34:36.232Z,6.17
2022-11-27T22:39:43.965Z,5.69
2022-11-27T22:44:49.657Z,5.56
2022-11-27T22:49:53.679Z,5.28
2022-11-27T22:54:59.818Z,5.98
2022-11-27T23:00:08.051Z,6.02
2022-11-27T23:05:12.541Z,5.85
2022-11-27T23:10:18.152Z,5.75
2022-11-27T23:15:22.119Z,6.11
2022-11-27T23:20:26.778Z,5.42
2022-11-27T23:25:35.279Z,5.28
2022-11-27T23:30:39.365Z,6.22
2022-11-27T23:35:43.299Z,5.44
2022-11-27T23:40:48.672Z,6.09
2022-11-27T23:45:55.761Z,5.51
2022-11-27T23:50:59.863Z,6.18
2022-11-27T23:56:07.176Z,5.91
